Greensboro, NC (27401)

8:11 PM EST on December 05, 2016 (GMT -0500)
East Wendover | | Change Station

Elev 774 ft 36.09 °N, 79.76 °W | Updated 6 seconds ago

Overcast
Overcast
51.0 °F
Feels Like 51.0 °F
N
0.0
Wind Variable Wind from East
Gusts 1.0 mph

Today
High -- | Low -- °F
--% Chance of Precip.
Yesterday
High -- | Low -- °F
Precip. -- in
Pressure 30.06 in
Visibility 10.0 miles
Clouds Overcast 9500 ft
Dew Point 45 °F
Humidity 79%
Rainfall 0.00 in
Snow Depth Not available.
7:15 AM 5:04 PM
Waxing Crescent, 36% visible
METAR KGSO 060054Z 09005KT 10SM -RA OVC095 11/06 A3005 RMK AO2 RAB26 SLP177 P0000 T01060061
Pressure 30.06 in
Visibility 10.0 miles
Clouds Overcast 9500 ft
Dew Point 45 °F
Humidity 79%
Rainfall 0.00 in
Snow Depth Not available.
7:15 AM 5:04 PM
Waxing Crescent, 36% visible
METAR KGSO 060054Z 09005KT 10SM -RA OVC095 11/06 A3005 RMK AO2 RAB26 SLP177 P0000 T01060061

10-Day Weather Forecast

Almanac

Astronomy

Dec. 05, 2016 Rise Set
Actual Time
Civil Twilight
Nautical Twilight
Astronomical Twilight
Moon
Length of Visible Light
Length of Day
Tomorrow will be .
, % of the Moon is Illuminated

Today's Extremes

State Highs State Lows

Community

WunderPhotos

Upload Photos

1,955,893 photos uploaded!

WunderBlog® & News

Nearby

Air Quality

  Air Quality AQ Index Pollutant
Not available.

Snow Depth

Station Depth Elevation

Earthquake Activity

City Distance Mag. Time & Date
Minimum magnitude displayed is 2.5.

Coastal Water Temperatures

Place Temperature

Stations

Nearby Weather Stations

Station Location Temp. Windchill Dew Point Humidity Wind Precip. Elev Updated Type
                   

Watches & Warnings

There are currently no watches in effect.